Time;durP1;ratioP1;P1;durP2;ratioP2;P2;SDS_P1;SDS_P2;PMS_P1;PMS_P2;Temp;Humidity;BMP_temperature;BMP_pressure;BME280_temperature;BME280_humidity;BME280_pressure;Samples;Min_cycle;Max_cycle;Signal;HPM_P1;HPM_P2
2023/04/16 00:00:39;;;;;;;14.80;2.97;;;12.80;91.50;;;;;;5053627;28;20079;-74
2023/04/16 00:03:05;;;;;;;13.98;2.20;;;12.80;91.30;;;;;;5053312;28;20063;-72
2023/04/16 00:05:30;;;;;;;17.08;2.65;;;12.80;91.20;;;;;;5053072;28;20394;-72
2023/04/16 00:07:56;;;;;;;8.40;1.77;;;12.80;90.90;;;;;;5053615;28;20035;-71
2023/04/16 00:10:22;;;;;;;12.48;1.98;;;12.80;90.60;;;;;;5053369;28;20094;-72
2023/04/16 00:12:47;;;;;;;12.77;2.00;;;12.80;90.50;;;;;;5053660;28;20051;-72
2023/04/16 00:15:14;;;;;;;7.05;1.20;;;12.80;89.50;;;;;;5053440;28;20116;-73
2023/04/16 00:17:40;;;;;;;13.80;1.92;;;12.80;89.80;;;;;;5053460;28;20036;-72
2023/04/16 00:20:07;;;;;;;9.80;1.90;;;12.80;89.60;;;;;;5053418;28;20037;-72
2023/04/16 00:22:33;;;;;;;9.57;2.00;;;12.80;88.90;;;;;;5053299;28;20560;-71
2023/04/16 00:24:59;;;;;;;10.38;1.60;;;12.80;88.80;;;;;;5053640;28;20029;-72
2023/04/16 00:27:24;;;;;;;11.73;1.70;;;12.80;88.40;;;;;;5053304;28;20466;-72
2023/04/16 00:29:50;;;;;;;9.88;1.67;;;12.80;88.00;;;;;;5053308;28;20068;-72
2023/04/16 00:32:16;;;;;;;9.20;1.30;;;12.70;87.80;;;;;;5053470;28;20037;-72
2023/04/16 00:34:41;;;;;;;7.05;1.63;;;12.70;87.00;;;;;;5052440;28;20045;-73
2023/04/16 00:37:07;;;;;;;5.28;1.15;;;12.70;86.70;;;;;;5053349;28;20029;-73
2023/04/16 00:39:33;;;;;;;4.55;1.60;;;12.70;85.80;;;;;;5053284;28;20056;-71
2023/04/16 00:41:58;;;;;;;9.45;1.85;;;12.70;85.50;;;;;;5052985;28;20033;-71
2023/04/16 00:44:24;;;;;;;11.73;1.83;;;12.70;85.80;;;;;;5052805;28;20044;-72
2023/04/16 00:46:50;;;;;;;6.13;1.60;;;12.60;85.80;;;;;;5052794;28;20025;-72
2023/04/16 00:49:16;;;;;;;7.88;2.08;;;12.60;86.10;;;;;;5052975;28;20110;-73
2023/04/16 00:51:41;;;;;;;9.32;1.80;;;12.60;86.30;;;;;;5052358;28;20447;-71
2023/04/16 00:54:07;;;;;;;8.30;1.40;;;12.60;86.60;;;;;;5034712;28;20118;-72
2023/04/16 00:56:35;;;;;;;8.93;1.67;;;12.50;86.40;;;;;;5052724;28;20091;-72
2023/04/16 00:59:01;;;;;;;6.45;1.58;;;12.50;86.80;;;;;;5053580;28;20116;-71
2023/04/16 01:01:26;;;;;;;6.80;1.48;;;12.50;86.70;;;;;;5053280;28;20121;-73
2023/04/16 01:03:53;;;;;;;5.15;1.10;;;12.40;86.50;;;;;;5052326;28;20037;-72
2023/04/16 01:06:19;;;;;;;5.95;1.48;;;12.50;86.80;;;;;;5052557;28;20541;-72
2023/04/16 01:08:46;;;;;;;3.78;1.40;;;12.40;86.50;;;;;;5052719;28;20043;-72
2023/04/16 01:11:14;;;;;;;5.75;1.27;;;12.40;86.40;;;;;;5052581;28;20083;-71
2023/04/16 01:13:39;;;;;;;6.82;1.58;;;12.40;86.60;;;;;;5052212;28;20065;-72
2023/04/16 01:16:10;;;;;;;4.85;1.58;;;12.40;86.50;;;;;;5052178;28;20042;-72
2023/04/16 01:18:36;;;;;;;7.40;1.98;;;12.40;86.60;;;;;;5052308;28;20123;-72
2023/04/16 01:21:02;;;;;;;8.15;1.73;;;12.40;86.70;;;;;;5052517;28;20037;-73
2023/04/16 01:23:28;;;;;;;8.00;1.73;;;12.40;86.90;;;;;;5052499;28;20033;-73
2023/04/16 01:25:54;;;;;;;5.30;1.40;;;12.30;86.80;;;;;;5052329;28;20383;-72
2023/04/16 01:28:20;;;;;;;8.93;1.70;;;12.20;86.70;;;;;;5034278;28;20131;-72
2023/04/16 01:30:46;;;;;;;9.73;2.00;;;12.20;86.90;;;;;;5052458;28;20402;-72
2023/04/16 01:33:12;;;;;;;5.57;1.80;;;12.20;87.10;;;;;;5052233;28;20082;-73
2023/04/16 01:35:39;;;;;;;8.02;1.50;;;12.10;87.00;;;;;;5052259;28;20029;-73
2023/04/16 01:38:07;;;;;;;8.18;1.80;;;12.00;87.20;;;;;;5051869;28;20036;-72
2023/04/16 01:40:36;;;;;;;6.25;1.52;;;12.10;87.20;;;;;;5051947;28;20605;-72
2023/04/16 01:43:03;;;;;;;5.28;1.50;;;12.00;86.20;;;;;;5051860;28;20030;-72
2023/04/16 01:45:31;;;;;;;7.07;1.75;;;12.00;86.80;;;;;;5055458;28;20033;-72
2023/04/16 01:47:56;;;;;;;8.50;1.90;;;12.00;86.70;;;;;;5058791;28;20035;-72
2023/04/16 01:50:22;;;;;;;5.63;1.50;;;11.90;86.40;;;;;;5058963;28;20112;-72
2023/04/16 01:52:48;;;;;;;4.70;1.40;;;11.90;86.30;;;;;;5058621;28;20129;-72
2023/04/16 01:55:14;;;;;;;4.25;1.40;;;11.90;86.40;;;;;;5058703;28;20049;-72
2023/04/16 01:57:40;;;;;;;9.65;1.92;;;11.90;86.40;;;;;;5058687;28;20449;-73
2023/04/16 02:00:07;;;;;;;5.63;1.73;;;11.90;86.50;;;;;;5058610;28;20079;-73
2023/04/16 02:02:33;;;;;;;6.15;1.75;;;11.90;86.20;;;;;;5058708;28;20032;-73
2023/04/16 02:04:59;;;;;;;8.25;1.45;;;11.90;86.40;;;;;;5058473;28;20452;-71
2023/04/16 02:07:26;;;;;;;5.95;1.20;;;11.90;86.20;;;;;;5058761;28;20040;-71
2023/04/16 02:09:52;;;;;;;7.72;1.40;;;11.90;86.10;;;;;;5058343;28;20029;-71
2023/04/16 02:12:18;;;;;;;5.43;1.95;;;11.90;86.10;;;;;;5058727;28;20041;-72
2023/04/16 02:14:43;;;;;;;5.32;1.40;;;11.90;86.10;;;;;;5058516;28;20450;-72
2023/04/16 02:17:09;;;;;;;7.25;1.48;;;11.90;86.20;;;;;;5040446;28;20044;-72
2023/04/16 02:19:35;;;;;;;7.07;1.48;;;11.80;86.10;;;;;;5058506;28;20124;-71
2023/04/16 02:22:01;;;;;;;6.50;1.58;;;11.70;86.60;;;;;;5058965;28;20375;-69
2023/04/16 02:24:27;;;;;;;6.70;2.05;;;11.70;86.70;;;;;;5058610;28;20064;-73
2023/04/16 02:26:53;;;;;;;6.47;1.67;;;11.70;86.70;;;;;;5058549;28;20115;-74
2023/04/16 02:29:20;;;;;;;5.32;1.60;;;11.70;86.80;;;;;;5058192;28;20033;-72
2023/04/16 02:31:46;;;;;;;8.43;1.50;;;11.70;87.20;;;;;;5058404;28;20494;-72
2023/04/16 02:34:12;;;;;;;4.90;1.50;;;11.70;87.10;;;;;;5058477;28;20513;-72
2023/04/16 02:36:38;;;;;;;6.32;1.50;;;11.70;87.50;;;;;;5058355;28;20033;-72
2023/04/16 02:39:03;;;;;;;5.18;1.30;;;11.60;87.10;;;;;;5058226;28;20048;-72
2023/04/16 02:41:29;;;;;;;7.30;1.85;;;11.60;87.30;;;;;;5058212;28;20041;-72
2023/04/16 02:43:55;;;;;;;5.22;1.48;;;11.60;87.50;;;;;;5040407;28;20041;-72
2023/04/16 02:46:21;;;;;;;5.97;1.63;;;11.50;87.70;;;;;;5058177;28;20107;-71
2023/04/16 02:48:47;;;;;;;6.13;1.48;;;11.50;87.90;;;;;;5058412;28;20107;-72
2023/04/16 02:51:12;;;;;;;6.05;1.67;;;11.50;88.20;;;;;;5058153;28;20474;-71
2023/04/16 02:53:38;;;;;;;5.82;1.80;;;11.40;88.50;;;;;;5058016;28;20041;-71
2023/04/16 02:56:04;;;;;;;8.43;1.90;;;11.50;88.70;;;;;;5057636;28;20036;-71
2023/04/16 02:58:30;;;;;;;8.98;1.60;;;11.50;88.90;;;;;;5054730;28;20029;-72
2023/04/16 03:00:55;;;;;;;7.68;1.60;;;11.50;89.10;;;;;;5055006;28;20439;-71
2023/04/16 03:03:21;;;;;;;6.28;1.98;;;11.40;89.60;;;;;;5054814;28;20453;-71
2023/04/16 03:05:47;;;;;;;8.07;1.70;;;11.40;90.00;;;;;;5054817;28;20056;-71
2023/04/16 03:08:13;;;;;;;6.55;1.63;;;11.50;90.10;;;;;;5054678;28;20029;-72
2023/04/16 03:10:40;;;;;;;4.55;1.27;;;11.50;90.10;;;;;;5054853;28;20044;-71
2023/04/16 03:13:06;;;;;;;6.22;1.40;;;11.50;90.30;;;;;;5054922;28;20045;-72
2023/04/16 03:15:31;;;;;;;5.78;1.60;;;11.50;90.20;;;;;;5054633;28;20040;-72
2023/04/16 03:17:58;;;;;;;4.82;1.50;;;11.40;90.40;;;;;;5054467;28;20033;-71
2023/04/16 03:20:24;;;;;;;4.97;1.30;;;11.40;90.60;;;;;;5054459;28;20029;-71
2023/04/16 03:22:51;;;;;;;5.60;1.52;;;11.40;90.80;;;;;;5054987;28;20048;-72
2023/04/16 03:25:17;;;;;;;3.90;1.20;;;11.50;90.80;;;;;;5054639;28;20029;-72
2023/04/16 03:27:43;;;;;;;4.88;1.30;;;11.40;91.10;;;;;;5054453;28;20045;-71
2023/04/16 03:30:12;;;;;;;7.03;1.27;;;11.50;91.10;;;;;;5054569;28;20036;-72
2023/04/16 03:32:39;;;;;;;3.90;1.33;;;11.50;91.30;;;;;;5036372;28;20478;-71
2023/04/16 03:35:06;;;;;;;4.03;1.30;;;11.50;91.30;;;;;;5054487;28;20037;-71
2023/04/16 03:37:32;;;;;;;5.03;1.20;;;11.50;91.40;;;;;;5053962;28;20029;-72
2023/04/16 03:39:58;;;;;;;4.45;1.10;;;11.50;91.50;;;;;;5053937;28;20052;-72
2023/04/16 03:42:23;;;;;;;3.63;1.40;;;11.40;91.60;;;;;;5054240;28;20364;-72
2023/04/16 03:44:50;;;;;;;2.90;1.00;;;11.50;91.60;;;;;;5053982;28;20076;-71
2023/04/16 03:47:15;;;;;;;3.75;1.08;;;11.50;91.70;;;;;;5054199;28;20064;-73
2023/04/16 03:49:41;;;;;;;5.40;0.98;;;11.50;91.90;;;;;;5053904;28;20029;-72
2023/04/16 03:52:06;;;;;;;2.95;1.27;;;11.40;91.90;;;;;;5054251;28;20044;-71
2023/04/16 03:54:32;;;;;;;2.70;1.10;;;11.50;92.00;;;;;;5035949;28;20503;-72
2023/04/16 03:56:58;;;;;;;4.55;1.00;;;11.40;92.00;;;;;;5053568;28;20132;-72
2023/04/16 03:59:23;;;;;;;3.63;1.25;;;11.40;92.20;;;;;;5059684;28;20044;-72
2023/04/16 04:01:49;;;;;;;3.65;1.13;;;11.40;92.20;;;;;;5073567;28;20486;-72
2023/04/16 04:04:16;;;;;;;2.45;1.10;;;11.50;92.20;;;;;;5073230;28;20067;-71
2023/04/16 04:06:41;;;;;;;4.25;1.10;;;11.50;92.30;;;;;;5073341;28;20082;-72
2023/04/16 04:09:07;;;;;;;4.47;1.30;;;11.50;92.30;;;;;;5072299;28;20444;-71
2023/04/16 04:11:33;;;;;;;5.15;1.30;;;11.50;92.30;;;;;;5073598;28;20055;-72
2023/04/16 04:13:59;;;;;;;2.83;1.10;;;11.50;92.20;;;;;;5073267;28;20098;-71
2023/04/16 04:16:24;;;;;;;2.88;1.13;;;11.40;92.40;;;;;;5073492;28;20037;-73
2023/04/16 04:18:50;;;;;;;4.32;1.08;;;11.40;92.50;;;;;;5072947;28;20390;-73
2023/04/16 04:21:16;;;;;;;4.43;1.30;;;11.40;92.80;;;;;;5073435;28;20036;-70
2023/04/16 04:23:42;;;;;;;4.15;1.40;;;11.40;92.80;;;;;;5073242;28;20016;-71
2023/04/16 04:26:08;;;;;;;6.72;1.25;;;11.40;92.80;;;;;;5073203;28;20126;-71
2023/04/16 04:28:34;;;;;;;4.07;1.20;;;11.40;92.90;;;;;;5072975;28;20032;-72
2023/04/16 04:31:00;;;;;;;4.53;1.50;;;11.40;93.00;;;;;;5072938;28;20389;-72
2023/04/16 04:33:27;;;;;;;4.43;1.30;;;11.40;93.00;;;;;;5072774;28;20036;-71
2023/04/16 04:35:53;;;;;;;5.80;1.10;;;11.30;93.20;;;;;;5072943;28;20035;-72
2023/04/16 04:38:20;;;;;;;5.70;1.52;;;11.30;93.20;;;;;;5073016;28;20036;-71
2023/04/16 04:40:47;;;;;;;2.45;1.15;;;11.40;93.20;;;;;;5072912;28;20068;-72
2023/04/16 04:43:13;;;;;;;3.35;1.27;;;11.40;93.20;;;;;;5072858;28;20119;-72
2023/04/16 04:45:39;;;;;;;3.47;1.30;;;11.40;93.10;;;;;;5072868;28;20520;-71
2023/04/16 04:48:05;;;;;;;2.70;1.10;;;11.40;93.20;;;;;;5072922;28;20029;-71
2023/04/16 04:50:31;;;;;;;2.78;1.15;;;11.30;93.20;;;;;;5072979;28;20020;-72
2023/04/16 04:52:56;;;;;;;4.45;1.27;;;11.30;93.40;;;;;;5072865;28;20036;-72
2023/04/16 04:55:22;;;;;;;2.92;1.10;;;11.20;93.30;;;;;;5072653;28;20032;-71
2023/04/16 04:57:48;;;;;;;3.00;1.10;;;11.20;93.30;;;;;;5072614;28;20090;-72
2023/04/16 05:00:14;;;;;;;4.68;1.23;;;11.20;93.40;;;;;;5072179;28;20068;-72
2023/04/16 05:02:40;;;;;;;3.38;1.10;;;11.20;93.40;;;;;;5072341;28;20036;-72
2023/04/16 05:05:06;;;;;;;4.80;1.38;;;11.20;93.30;;;;;;5072760;28;20037;-72
2023/04/16 05:07:32;;;;;;;4.30;1.20;;;11.20;93.10;;;;;;5072699;28;20386;-72
2023/04/16 05:09:58;;;;;;;5.72;1.20;;;11.20;93.20;;;;;;5072607;28;20051;-72
2023/04/16 05:12:23;;;;;;;7.93;1.52;;;11.20;93.00;;;;;;5072385;28;20493;-72
2023/04/16 05:14:49;;;;;;;2.55;0.90;;;11.10;92.90;;;;;;5072250;28;20123;-71
2023/04/16 05:17:15;;;;;;;2.92;0.75;;;11.10;92.80;;;;;;5054639;28;20028;-71
2023/04/16 05:19:41;;;;;;;5.88;1.40;;;11.10;92.90;;;;;;5072299;28;20488;-72
2023/04/16 05:22:06;;;;;;;2.60;1.02;;;11.10;92.80;;;;;;5072309;28;20177;-72
2023/04/16 05:24:32;;;;;;;3.45;1.20;;;11.10;93.00;;;;;;5072351;28;20037;-72
2023/04/16 05:26:58;;;;;;;3.40;1.00;;;11.10;92.80;;;;;;5072245;28;20390;-71
2023/04/16 05:29:23;;;;;;;2.40;0.90;;;11.10;92.80;;;;;;5071930;28;20474;-72
2023/04/16 05:31:49;;;;;;;3.72;1.02;;;11.10;92.60;;;;;;5071947;28;20478;-71
2023/04/16 05:34:15;;;;;;;2.85;1.00;;;11.10;92.60;;;;;;5071850;28;20049;-71
2023/04/16 05:36:41;;;;;;;4.40;1.33;;;11.10;92.50;;;;;;5071931;28;20037;-71
2023/04/16 05:39:06;;;;;;;2.60;0.90;;;11.10;92.40;;;;;;5071980;28;20052;-72
2023/04/16 05:41:33;;;;;;;4.05;1.10;;;11.10;92.40;;;;;;5071857;28;20498;-72
2023/04/16 05:43:59;;;;;;;4.22;1.00;;;11.10;92.40;;;;;;5071899;28;20539;-72
2023/04/16 05:46:25;;;;;;;2.30;0.82;;;11.20;92.40;;;;;;5071772;28;20071;-72
2023/04/16 05:48:50;;;;;;;5.00;1.20;;;11.30;92.30;;;;;;5072460;28;20041;-72
2023/04/16 05:51:16;;;;;;;3.08;1.08;;;11.40;92.10;;;;;;5072264;28;20470;-72
2023/04/16 05:53:42;;;;;;;2.50;1.00;;;11.50;91.90;;;;;;5071871;28;20045;-71
2023/04/16 05:56:08;;;;;;;5.68;1.27;;;11.60;91.70;;;;;;5072045;28;20036;-72
2023/04/16 05:58:33;;;;;;;2.60;0.90;;;11.70;91.70;;;;;;5071783;28;20496;-72
2023/04/16 06:01:00;;;;;;;5.15;1.17;;;11.70;91.40;;;;;;5071693;28;20032;-72
2023/04/16 06:03:26;;;;;;;3.92;1.00;;;11.80;91.30;;;;;;5053684;28;20114;-72
2023/04/16 06:05:52;;;;;;;2.33;0.90;;;11.80;91.30;;;;;;5071976;28;20028;-72
2023/04/16 06:08:18;;;;;;;2.67;1.00;;;11.80;91.00;;;;;;5071858;28;20029;-72
2023/04/16 06:10:45;;;;;;;2.90;1.10;;;11.80;91.10;;;;;;5071884;28;20039;-72
2023/04/16 06:13:11;;;;;;;4.45;1.20;;;11.80;91.40;;;;;;5071648;28;20116;-72
2023/04/16 06:15:37;;;;;;;3.53;0.95;;;11.90;91.20;;;;;;5053220;28;20079;-72
2023/04/16 06:18:03;;;;;;;3.40;0.98;;;11.80;91.00;;;;;;5071426;28;20398;-73
2023/04/16 06:20:29;;;;;;;3.30;1.17;;;11.90;91.20;;;;;;5071509;28;20436;-72
2023/04/16 06:22:55;;;;;;;2.58;1.08;;;11.90;91.00;;;;;;5071570;28;20486;-72
2023/04/16 06:25:21;;;;;;;2.85;1.10;;;11.90;91.10;;;;;;5071548;28;20078;-71
2023/04/16 06:27:46;;;;;;;3.85;1.20;;;11.90;91.10;;;;;;5071368;28;20040;-72
2023/04/16 06:30:13;;;;;;;3.45;1.02;;;11.90;91.00;;;;;;5071313;28;20111;-72
2023/04/16 06:32:39;;;;;;;2.92;1.10;;;11.90;91.00;;;;;;5073360;28;20439;-71
2023/04/16 06:35:05;;;;;;;2.50;1.00;;;11.90;90.90;;;;;;5075357;28;20168;-72
2023/04/16 06:37:31;;;;;;;2.45;1.00;;;11.90;90.90;;;;;;5057499;28;20060;-73
2023/04/16 06:39:56;;;;;;;2.20;0.95;;;11.90;91.00;;;;;;5074797;28;20078;-72
2023/04/16 06:42:22;;;;;;;3.60;1.30;;;12.00;90.70;;;;;;5075213;28;20028;-73
2023/04/16 06:44:48;;;;;;;3.80;1.05;;;12.10;90.60;;;;;;5075153;28;20041;-73
2023/04/16 06:47:15;;;;;;;4.57;1.15;;;12.20;90.50;;;;;;5075234;28;20039;-72
2023/04/16 06:49:40;;;;;;;3.38;1.10;;;12.40;90.50;;;;;;5074874;28;20036;-72
2023/04/16 06:52:06;;;;;;;3.30;1.10;;;12.40;90.20;;;;;;5064416;28;20033;-72
2023/04/16 06:54:32;;;;;;;3.60;1.10;;;12.40;90.10;;;;;;5054772;28;20529;-73
2023/04/16 06:56:58;;;;;;;2.10;1.20;;;12.50;90.20;;;;;;5036701;28;20037;-72
2023/04/16 06:59:23;;;;;;;3.97;1.10;;;12.50;90.00;;;;;;5054669;28;20083;-73
2023/04/16 07:01:50;;;;;;;2.95;1.00;;;12.50;89.80;;;;;;5054999;28;20022;-72
2023/04/16 07:04:16;;;;;;;4.88;0.90;;;12.60;90.00;;;;;;5054716;28;20037;-73
2023/04/16 07:06:41;;;;;;;3.78;1.08;;;12.70;89.70;;;;;;5054778;28;20083;-72
2023/04/16 07:09:07;;;;;;;3.55;1.20;;;12.80;89.70;;;;;;5054593;28;20120;-72
2023/04/16 07:11:33;;;;;;;1.98;0.90;;;12.80;89.30;;;;;;5036795;28;20025;-72
2023/04/16 07:13:59;;;;;;;2.80;0.80;;;12.80;88.90;;;;;;5054235;28;20554;-73
2023/04/16 07:16:24;;;;;;;3.20;1.00;;;12.90;88.40;;;;;;5036083;28;20053;-73
2023/04/16 07:18:50;;;;;;;3.78;1.13;;;12.90;88.50;;;;;;5054277;28;20372;-72
2023/04/16 07:21:16;;;;;;;2.05;1.00;;;13.00;87.90;;;;;;5054551;28;20033;-74
2023/04/16 07:23:41;;;;;;;1.85;0.80;;;13.00;87.60;;;;;;5054198;28;20037;-73
2023/04/16 07:26:07;;;;;;;3.65;1.30;;;13.00;87.30;;;;;;5054340;28;20029;-73
2023/04/16 07:28:33;;;;;;;4.45;1.10;;;13.10;87.50;;;;;;5053571;28;20048;-72
2023/04/16 07:30:59;;;;;;;3.40;1.20;;;13.20;87.00;;;;;;5053000;28;20112;-73
2023/04/16 07:33:25;;;;;;;3.35;1.10;;;13.40;86.80;;;;;;5053328;28;20052;-73
2023/04/16 07:35:50;;;;;;;3.78;1.00;;;13.60;86.80;;;;;;5053559;28;20524;-72
2023/04/16 07:38:16;;;;;;;3.45;1.00;;;13.80;86.20;;;;;;5053386;28;20041;-72
2023/04/16 07:40:42;;;;;;;4.20;1.77;;;13.90;85.80;;;;;;5053054;28;20483;-72
2023/04/16 07:43:08;;;;;;;3.65;1.40;;;13.90;85.90;;;;;;5053189;28;20370;-72
2023/04/16 07:45:33;;;;;;;2.70;1.15;;;13.90;85.40;;;;;;5053926;28;20037;-72
2023/04/16 07:47:59;;;;;;;6.18;1.10;;;13.90;85.30;;;;;;5054058;28;20061;-72
2023/04/16 07:50:24;;;;;;;4.93;0.93;;;13.90;85.40;;;;;;5053865;28;20430;-76
2023/04/16 07:52:50;;;;;;;2.65;1.10;;;13.90;85.40;;;;;;5053322;28;20489;-71
2023/04/16 07:55:16;;;;;;;1.77;0.80;;;13.90;85.60;;;;;;5053516;28;20075;-74
2023/04/16 07:57:42;;;;;;;3.97;0.90;;;14.00;85.50;;;;;;5053543;28;20083;-71
2023/04/16 08:00:10;;;;;;;4.68;1.38;;;14.00;85.50;;;;;;5053302;28;20033;-70
2023/04/16 08:02:35;;;;;;;2.80;1.10;;;14.20;84.70;;;;;;5053455;28;20033;-70
2023/04/16 08:05:01;;;;;;;2.88;1.13;;;14.40;84.40;;;;;;5053583;28;20084;-70
2023/04/16 08:07:27;;;;;;;3.22;1.02;;;14.50;84.00;;;;;;5053341;28;20363;-71
2023/04/16 08:09:53;;;;;;;1.17;0.70;;;14.50;82.40;;;;;;5053384;28;20117;-69
2023/04/16 08:12:19;;;;;;;2.60;0.90;;;14.50;81.50;;;;;;5053553;28;20033;-72
2023/04/16 08:14:46;;;;;;;1.55;0.70;;;14.50;80.90;;;;;;5052860;28;20406;-72
2023/04/16 08:17:12;;;;;;;2.50;0.90;;;14.50;80.90;;;;;;5053310;28;20040;-70
2023/04/16 08:19:38;;;;;;;1.45;0.70;;;14.50;81.10;;;;;;5053165;28;20135;-70
2023/04/16 08:22:04;;;;;;;2.22;1.15;;;14.50;80.70;;;;;;5053048;28;20674;-70
2023/04/16 08:24:30;;;;;;;2.42;0.73;;;14.50;80.10;;;;;;5050435;28;20041;-69
2023/04/16 08:26:56;;;;;;;1.40;0.98;;;14.60;80.00;;;;;;5053377;28;20498;-72
2023/04/16 08:29:25;;;;;;;1.33;0.60;;;14.50;79.60;;;;;;5052910;28;20106;-70
2023/04/16 08:31:51;;;;;;;1.25;0.70;;;14.50;79.80;;;;;;5052662;28;20033;-71
2023/04/16 08:34:17;;;;;;;3.30;0.93;;;14.50;79.40;;;;;;5052798;28;20449;-72
2023/04/16 08:36:43;;;;;;;1.70;0.90;;;14.50;79.00;;;;;;5052301;28;20037;-70
2023/04/16 08:39:08;;;;;;;3.35;1.73;;;14.60;79.70;;;;;;5052008;28;20045;-69
2023/04/16 08:41:37;;;;;;;3.47;1.88;;;14.80;79.60;;;;;;5052908;28;20079;-70
2023/04/16 08:44:07;;;;;;;3.58;1.20;;;14.80;79.30;;;;;;5051877;28;20393;-71
2023/04/16 08:46:36;;;;;;;2.03;0.90;;;14.80;79.10;;;;;;5049817;28;20025;-70
2023/04/16 08:49:07;;;;;;;2.05;1.08;;;14.90;78.40;;;;;;5052833;28;20037;-70
2023/04/16 08:51:36;;;;;;;1.92;0.90;;;14.90;78.20;;;;;;5052675;28;20395;-70
2023/04/16 08:54:04;;;;;;;0.80;0.50;;;14.90;77.70;;;;;;5052370;28;20048;-71
2023/04/16 08:56:31;;;;;;;1.30;0.60;;;15.00;76.90;;;;;;5052443;28;20029;-71
2023/04/16 08:59:03;;;;;;;3.30;0.90;;;15.00;76.50;;;;;;5051518;28;20402;-70
2023/04/16 09:01:34;;;;;;;1.85;1.00;;;14.90;76.10;;;;;;5052649;28;20107;-69
2023/04/16 09:04:03;;;;;;;1.42;0.60;;;14.90;76.20;;;;;;5051894;28;20079;-69
2023/04/16 09:06:30;;;;;;;2.72;0.73;;;14.90;76.00;;;;;;5034625;28;20029;-70
2023/04/16 09:08:58;;;;;;;2.17;1.10;;;15.00;76.40;;;;;;5052300;28;20033;-70
2023/04/16 09:11:24;;;;;;;3.25;1.13;;;15.00;76.40;;;;;;5052245;28;20033;-71
2023/04/16 09:13:51;;;;;;;2.53;0.98;;;15.10;76.10;;;;;;5052431;28;20124;-72
2023/04/16 09:16:19;;;;;;;1.30;0.50;;;15.10;75.40;;;;;;5052372;28;20032;-71
2023/04/16 09:18:46;;;;;;;3.47;0.65;;;15.20;75.30;;;;;;5052407;28;20073;-71
2023/04/16 09:21:12;;;;;;;2.25;0.80;;;15.20;75.20;;;;;;5052592;28;20036;-70
2023/04/16 09:23:38;;;;;;;1.85;0.85;;;15.30;75.00;;;;;;5034508;28;20434;-71
2023/04/16 09:26:04;;;;;;;3.10;0.80;;;15.40;75.20;;;;;;5052271;28;20029;-71
2023/04/16 09:28:46;;;;;;;1.63;0.70;;;15.60;74.90;;;;;;5051621;28;20055;-73
2023/04/16 09:31:14;;;;;;;2.40;0.60;;;15.70;73.90;;;;;;5051779;28;20409;-72
2023/04/16 09:33:40;;;;;;;3.35;0.70;;;15.70;73.10;;;;;;5051899;28;20072;-73
2023/04/16 09:36:09;;;;;;;5.25;0.73;;;15.80;72.60;;;;;;5053243;28;20029;-73
2023/04/16 09:38:51;;;;;;;1.40;0.93;;;15.90;71.50;;;;;;5052717;28;20094;-72
2023/04/16 09:41:17;;;;;;;1.38;0.90;;;16.00;71.40;;;;;;5033595;28;20509;-71
2023/04/16 09:44:05;;;;;;;1.88;0.70;;;16.00;70.90;;;;;;5051959;28;20116;-71
2023/04/16 09:46:35;;;;;;;2.55;0.88;;;16.00;70.50;;;;;;5052576;28;20037;-71
2023/04/16 09:49:08;;;;;;;2.30;1.02;;;16.00;71.20;;;;;;5051860;28;20041;-71
2023/04/16 09:51:37;;;;;;;3.10;0.87;;;16.10;71.10;;;;;;5052103;28;20032;-71
2023/04/16 09:54:06;;;;;;;1.95;0.75;;;16.10;71.00;;;;;;5052253;28;20314;-71
2023/04/16 09:56:32;;;;;;;1.10;0.57;;;16.10;70.40;;;;;;5051870;28;20035;-71
2023/04/16 09:59:01;;;;;;;1.38;0.70;;;16.10;70.00;;;;;;5033705;28;20045;-68
2023/04/16 10:01:29;;;;;;;2.90;0.90;;;16.10;69.90;;;;;;5051319;28;20037;-73
2023/04/16 10:03:55;;;;;;;1.42;0.65;;;16.20;70.40;;;;;;5052077;28;20040;-72
2023/04/16 10:06:24;;;;;;;2.63;0.95;;;16.20;69.40;;;;;;5052957;28;20033;-74
2023/04/16 10:08:51;;;;;;;0.98;0.63;;;16.30;69.30;;;;;;5055482;28;20041;-73
2023/04/16 10:11:18;;;;;;;1.33;0.85;;;16.40;68.10;;;;;;5055657;28;20051;-72
2023/04/16 10:13:45;;;;;;;3.17;1.00;;;16.60;68.20;;;;;;5055465;28;20037;-70
2023/04/16 10:16:11;;;;;;;2.00;0.80;;;16.80;67.60;;;;;;5056147;28;20087;-72
2023/04/16 10:18:39;;;;;;;1.75;0.70;;;16.90;67.30;;;;;;5055845;28;20037;-71
2023/04/16 10:21:05;;;;;;;1.63;0.68;;;17.00;66.50;;;;;;5055745;28;20048;-71
2023/04/16 10:23:32;;;;;;;2.78;0.80;;;16.90;66.40;;;;;;5055364;28;20028;-73
2023/04/16 10:26:00;;;;;;;1.85;0.90;;;16.80;66.30;;;;;;5055022;28;20044;-74
2023/04/16 10:28:27;;;;;;;1.95;0.77;;;16.80;66.50;;;;;;5054831;28;20033;-72
2023/04/16 10:30:55;;;;;;;2.13;0.70;;;16.90;66.90;;;;;;5055919;28;20060;-71
2023/04/16 10:33:35;;;;;;;1.50;0.70;;;17.00;66.40;;;;;;5037376;28;20469;-71
2023/04/16 10:36:15;;;;;;;0.68;0.50;;;17.00;66.00;;;;;;5054947;28;20040;-74
2023/04/16 10:38:48;;;;;;;2.45;0.80;;;17.10;66.30;;;;;;5054350;28;20499;-73
2023/04/16 10:41:14;;;;;;;1.77;0.70;;;17.10;65.60;;;;;;5036987;28;20036;-72
2023/04/16 10:43:45;;;;;;;1.75;0.73;;;17.20;65.50;;;;;;5055109;28;20107;-72
2023/04/16 10:46:22;;;;;;;2.05;0.70;;;17.40;65.10;;;;;;5054975;28;20103;-72
2023/04/16 10:48:51;;;;;;;1.30;0.77;;;17.60;64.90;;;;;;5055008;28;20517;-71
2023/04/16 10:51:33;;;;;;;1.38;0.63;;;17.70;64.50;;;;;;5055098;28;20044;-71
2023/04/16 10:54:03;;;;;;;2.78;0.90;;;17.80;64.30;;;;;;5055043;28;20159;-73
2023/04/16 10:56:32;;;;;;;1.45;0.70;;;17.80;64.20;;;;;;5055180;28;20445;-72
2023/04/16 10:58:58;;;;;;;1.83;0.73;;;17.80;64.30;;;;;;5054845;28;20033;-72
2023/04/16 11:01:35;;;;;;;1.92;0.80;;;17.90;64.20;;;;;;5055636;28;20052;-76
2023/04/16 11:04:21;;;;;;;2.97;1.00;;;18.00;63.80;;;;;;5055645;28;20041;-75
2023/04/16 11:07:12;;;;;;;2.17;1.20;;;18.20;63.80;;;;;;5055342;28;20071;-75
2023/04/16 20:39:08;;;;;;;3.03;1.42;;;13.40;64.70;;;;;;5040704;23;20148;-77
2023/04/16 20:41:34;;;;;;;4.65;1.40;;;13.30;64.00;;;;;;5053006;28;20048;-77
2023/04/16 20:44:04;;;;;;;4.25;1.67;;;13.30;63.80;;;;;;5054000;28;20120;-78
2023/04/16 20:46:32;;;;;;;2.65;1.38;;;13.30;64.00;;;;;;5045652;28;20021;-77
2023/04/16 20:48:59;;;;;;;4.28;1.40;;;13.30;64.10;;;;;;5053277;28;20071;-75
2023/04/16 20:51:26;;;;;;;2.67;1.38;;;13.30;64.10;;;;;;5052368;28;20061;-76
2023/04/16 20:53:52;;;;;;;2.17;1.20;;;13.30;64.00;;;;;;5052640;28;20037;-74
2023/04/16 20:56:18;;;;;;;2.40;1.27;;;13.30;64.40;;;;;;5048115;28;20438;-77
2023/04/16 20:58:45;;;;;;;3.50;1.48;;;13.30;64.70;;;;;;5050823;28;20045;-76
2023/04/16 21:01:10;;;;;;;2.47;1.35;;;13.30;64.40;;;;;;5050349;28;20048;-75
2023/04/16 21:03:36;;;;;;;2.17;1.23;;;13.30;64.80;;;;;;5052718;28;20352;-74
2023/04/16 21:06:02;;;;;;;2.58;1.50;;;13.20;64.60;;;;;;5048605;28;20124;-74
2023/04/16 21:08:28;;;;;;;2.90;1.40;;;13.20;64.50;;;;;;5049453;28;20140;-74
2023/04/16 21:10:54;;;;;;;3.85;1.42;;;13.20;65.20;;;;;;5052237;28;20068;-77
2023/04/16 21:13:20;;;;;;;3.15;1.20;;;13.10;64.70;;;;;;5052288;28;20049;-76
2023/04/16 21:15:46;;;;;;;1.80;1.15;;;13.10;65.00;;;;;;5049315;28;20375;-77
2023/04/16 21:18:12;;;;;;;2.33;1.20;;;13.10;65.00;;;;;;5048537;28;20039;-76
2023/04/16 21:20:38;;;;;;;2.80;1.30;;;13.10;64.80;;;;;;5052432;28;20064;-76
2023/04/16 21:23:04;;;;;;;4.18;1.23;;;13.10;65.10;;;;;;5052835;28;20036;-78
2023/04/16 21:25:30;;;;;;;3.42;1.48;;;13.10;64.80;;;;;;5050917;28;20033;-77
2023/04/16 21:27:56;;;;;;;2.13;1.20;;;13.10;65.00;;;;;;5045727;28;20049;-77
2023/04/16 21:30:22;;;;;;;3.20;1.17;;;13.10;65.00;;;;;;5051827;28;20070;-78
2023/04/16 21:32:48;;;;;;;3.25;1.40;;;13.10;65.10;;;;;;5051884;28;20048;-77
2023/04/16 21:35:14;;;;;;;1.40;0.88;;;13.10;65.10;;;;;;5052024;28;20041;-78
2023/04/16 21:37:39;;;;;;;2.22;1.13;;;13.10;65.10;;;;;;5044732;28;20071;-77
2023/04/16 21:40:06;;;;;;;2.17;1.15;;;13.00;65.00;;;;;;5051941;28;20045;-77
2023/04/16 21:42:32;;;;;;;2.05;1.10;;;13.00;65.20;;;;;;5052027;28;20036;-76
2023/04/16 21:44:58;;;;;;;4.05;1.13;;;13.00;65.20;;;;;;5051758;28;20104;-77
2023/04/16 21:47:23;;;;;;;2.20;1.15;;;13.10;65.40;;;;;;5026734;28;20124;-77
2023/04/16 21:49:49;;;;;;;1.55;0.90;;;13.10;65.40;;;;;;5052101;28;20068;-76
2023/04/16 21:52:20;;;;;;;1.77;1.10;;;13.10;65.20;;;;;;5051944;28;20075;-78
2023/04/16 21:54:46;;;;;;;4.82;1.30;;;13.10;65.50;;;;;;5051691;28;20037;-77
2023/04/16 21:57:12;;;;;;;2.20;1.13;;;13.00;65.20;;;;;;5045217;28;20462;-76
2023/04/16 21:59:38;;;;;;;2.55;1.20;;;13.00;65.30;;;;;;5051923;28;20025;-75
2023/04/16 22:02:05;;;;;;;2.10;1.00;;;13.00;65.50;;;;;;5052882;28;20558;-76
2023/04/16 22:04:37;;;;;;;1.38;1.00;;;13.00;65.30;;;;;;5054595;28;20064;-76
2023/04/16 22:07:10;;;;;;;3.60;1.20;;;13.00;65.40;;;;;;5049937;28;20502;-78
2023/04/16 22:09:39;;;;;;;3.13;1.30;;;13.00;65.60;;;;;;5056315;28;20033;-76
2023/04/16 22:12:11;;;;;;;1.65;1.10;;;13.10;65.70;;;;;;5037987;28;20267;-73